createdAt,value
2022-09-07T00:01:08.918Z,29.03
2022-09-07T00:06:12.776Z,29.02
2022-09-07T00:11:17.941Z,29.01
2022-09-07T00:16:29.214Z,29.00
2022-09-07T00:21:31.990Z,29.00
2022-09-07T00:26:33.995Z,29.00
2022-09-07T00:31:36.151Z,29.00
2022-09-07T00:36:38.320Z,29.00
2022-09-07T00:41:40.337Z,28.99
2022-09-07T00:46:43.645Z,28.99
2022-09-07T00:51:58.425Z,28.96
2022-09-07T00:57:00.939Z,28.95
2022-09-07T01:02:03.100Z,28.98
2022-09-07T01:07:06.004Z,28.97
2022-09-07T01:12:08.792Z,28.96
2022-09-07T01:17:15.978Z,28.93
2022-09-07T01:22:48.865Z,28.92
2022-09-07T01:28:19.220Z,28.91
2022-09-07T01:33:44.603Z,28.93
2022-09-07T01:38:52.686Z,28.93
2022-09-07T01:44:16.211Z,28.93
2022-09-07T01:49:23.291Z,28.93
2022-09-07T01:54:32.919Z,28.89
2022-09-07T02:00:05.530Z,28.92
2022-09-07T02:05:18.677Z,28.88
2022-09-07T02:10:50.837Z,28.89
2022-09-07T02:16:11.149Z,28.87
2022-09-07T02:21:17.867Z,28.87
2022-09-07T02:26:24.176Z,28.89
2022-09-07T02:31:26.420Z,28.87
2022-09-07T02:36:32.444Z,28.86
2022-09-07T02:41:40.617Z,28.83
2022-09-07T02:47:09.765Z,28.81
2022-09-07T02:53:00.853Z,28.80
2022-09-07T02:58:24.648Z,28.84
2022-09-07T03:04:08.243Z,28.82
2022-09-07T03:09:20.944Z,28.81
2022-09-07T03:14:26.136Z,28.80
2022-09-07T03:19:28.295Z,28.80
2022-09-07T03:24:30.452Z,28.82
2022-09-07T03:29:32.525Z,28.78
2022-09-07T03:34:35.706Z,28.82
2022-09-07T03:39:37.694Z,28.82
2022-09-07T03:44:39.678Z,28.82
2022-09-07T03:49:41.663Z,28.76
2022-09-07T03:54:44.006Z,28.82
2022-09-07T03:59:47.125Z,28.81
2022-09-07T04:04:49.193Z,28.81
2022-09-07T04:09:54.309Z,28.77
2022-09-07T04:14:56.348Z,28.75
2022-09-07T04:19:58.441Z,28.75
2022-09-07T04:25:00.493Z,28.75
2022-09-07T04:30:02.558Z,28.77
2022-09-07T04:35:04.970Z,28.79
2022-09-07T04:40:07.636Z,28.77
2022-09-07T04:45:10.005Z,28.75
2022-09-07T04:50:12.010Z,28.74
2022-09-07T04:55:13.966Z,28.74
2022-09-07T05:00:16.552Z,28.71
2022-09-07T05:05:18.678Z,28.73
2022-09-07T05:10:20.676Z,28.75
2022-09-07T05:15:22.864Z,28.76
2022-09-07T05:20:25.915Z,28.75
2022-09-07T05:25:28.965Z,28.72
2022-09-07T05:35:59.791Z,28.72
2022-09-07T05:41:05.295Z,28.75
2022-09-07T05:46:07.827Z,28.72
2022-09-07T05:51:10.552Z,28.75
2022-09-07T05:56:12.966Z,28.69
2022-09-07T06:01:15.687Z,28.73
2022-09-07T06:06:21.800Z,28.74
2022-09-07T06:11:25.675Z,28.71
2022-09-07T06:16:27.702Z,28.76
2022-09-07T06:21:29.737Z,28.75
2022-09-07T06:26:32.447Z,28.75
2022-09-07T06:31:34.666Z,28.74
2022-09-07T06:36:36.973Z,28.74
2022-09-07T06:47:05.484Z,28.72
2022-09-07T06:52:07.434Z,28.71
2022-09-07T06:57:09.909Z,28.69
2022-09-07T07:02:15.172Z,28.69
2022-09-07T07:07:17.553Z,28.69
2022-09-07T07:17:20.295Z,28.69
2022-09-07T07:22:46.067Z,28.67
2022-09-07T07:27:48.322Z,28.68
2022-09-07T07:32:50.295Z,28.66
2022-09-07T07:37:53.275Z,28.67
2022-09-07T07:43:15.125Z,28.66
2022-09-07T07:48:17.156Z,28.67
2022-09-07T07:58:45.578Z,28.61
2022-09-07T08:03:47.807Z,28.61
2022-09-07T08:08:49.857Z,28.62
2022-09-07T08:13:52.327Z,28.61
2022-09-07T08:18:54.390Z,28.61
2022-09-07T08:40:08.120Z,28.63
2022-09-07T08:45:34.598Z,28.65
2022-09-07T08:50:51.697Z,28.68
2022-09-07T08:56:01.032Z,28.70
2022-09-07T09:06:55.927Z,28.72
2022-09-07T09:12:25.655Z,28.74
2022-09-07T09:18:00.664Z,28.71
2022-09-07T09:23:12.563Z,28.72
2022-09-07T09:28:14.748Z,28.73
2022-09-07T09:33:18.801Z,28.73
2022-09-07T09:38:35.531Z,28.70
2022-09-07T09:43:44.217Z,28.71
2022-09-07T09:48:55.186Z,28.70
2022-09-07T09:54:06.275Z,28.74
2022-09-07T10:04:45.932Z,28.75
2022-09-07T10:09:53.326Z,28.74
2022-09-07T10:14:56.937Z,28.75
2022-09-07T10:20:17.120Z,28.73
2022-09-07T10:25:36.932Z,28.73
2022-09-07T10:30:46.428Z,28.75
2022-09-07T10:36:04.138Z,28.77
2022-09-07T10:41:10.251Z,28.80
2022-09-07T10:51:45.253Z,28.79
2022-09-07T10:57:09.559Z,28.77
2022-09-07T11:02:24.847Z,28.81
2022-09-07T11:08:08.171Z,28.78
2022-09-07T11:13:16.467Z,28.81
2022-09-07T11:18:30.434Z,28.82
2022-09-07T11:23:44.311Z,28.84
2022-09-07T11:28:47.134Z,28.83
2022-09-07T11:39:36.529Z,28.79
2022-09-07T11:44:48.841Z,28.78
2022-09-07T11:49:59.300Z,28.77
2022-09-07T11:55:15.255Z,28.75
2022-09-07T12:00:47.640Z,28.76
2022-09-07T12:06:16.172Z,28.75
2022-09-07T12:11:32.287Z,28.70
2022-09-07T12:17:18.974Z,28.76
2022-09-07T12:22:22.679Z,28.79
2022-09-07T12:27:25.631Z,28.81
2022-09-07T12:32:58.172Z,28.78
2022-09-07T12:38:01.829Z,28.80
2022-09-07T12:43:13.289Z,28.78
2022-09-07T12:48:15.439Z,28.78
2022-09-07T12:53:43.640Z,28.82
2022-09-07T12:59:08.101Z,28.84
2022-09-07T13:04:27.380Z,28.84
2022-09-07T13:09:41.455Z,28.83
2022-09-07T13:14:52.133Z,28.84
2022-09-07T13:19:54.268Z,28.86
2022-09-07T13:25:26.556Z,28.84
2022-09-07T13:30:34.902Z,28.84
2022-09-07T13:35:37.301Z,28.86
2022-09-07T13:40:45.567Z,28.85
2022-09-07T13:45:53.777Z,28.86
2022-09-07T13:50:58.761Z,28.89
2022-09-07T13:56:24.542Z,28.88
2022-09-07T14:01:29.201Z,28.89
2022-09-07T14:06:34.203Z,28.88
2022-09-07T14:11:36.152Z,28.88
2022-09-07T14:16:38.749Z,28.90
2022-09-07T14:21:40.932Z,28.90
2022-09-07T14:26:51.220Z,28.91
2022-09-07T14:31:54.429Z,28.92
2022-09-07T14:37:01.456Z,28.95
2022-09-07T14:42:04.705Z,29.04
2022-09-07T14:47:29.196Z,29.03
2022-09-07T14:52:42.310Z,29.02
2022-09-07T14:57:46.083Z,29.02
2022-09-07T15:02:48.415Z,29.01
2022-09-07T15:08:01.867Z,29.00
2022-09-07T15:13:06.511Z,29.00
2022-09-07T15:18:45.694Z,28.99
2022-09-07T15:23:51.607Z,28.99
2022-09-07T15:29:10.731Z,29.02
2022-09-07T15:34:18.877Z,29.04
2022-09-07T15:39:26.852Z,29.05
2022-09-07T15:44:29.089Z,29.07
2022-09-07T15:49:31.079Z,29.01
2022-09-07T15:54:35.014Z,29.07
2022-09-07T15:59:39.007Z,29.08
2022-09-07T16:04:41.439Z,29.09
2022-09-07T16:09:43.684Z,29.12
2022-09-07T16:14:45.795Z,29.16
2022-09-07T16:19:47.726Z,29.18
2022-09-07T16:24:49.873Z,29.21
2022-09-07T16:29:51.847Z,29.23
2022-09-07T16:34:53.848Z,29.28
2022-09-07T16:39:56.835Z,29.31
2022-09-07T16:46:02.747Z,29.33
2022-09-07T16:50:20.751Z,29.34
2022-09-07T16:55:22.940Z,29.38
2022-09-07T17:00:24.955Z,29.40
2022-09-07T17:05:27.051Z,29.44
2022-09-07T17:10:29.028Z,29.47
2022-09-07T17:15:34.005Z,29.48
2022-09-07T17:20:36.013Z,29.50
2022-09-07T17:25:38.175Z,29.43
2022-09-07T17:30:40.293Z,29.43
2022-09-07T17:35:42.317Z,29.43
2022-09-07T17:40:44.393Z,29.40
2022-09-07T17:45:46.482Z,29.37
2022-09-07T17:50:48.619Z,29.35
2022-09-07T17:55:50.583Z,29.43
2022-09-07T18:00:53.406Z,29.37
2022-09-07T18:05:56.122Z,29.33
2022-09-07T18:16:34.877Z,29.30
2022-09-07T18:21:38.155Z,29.25
2022-09-07T18:26:40.280Z,29.26
2022-09-07T18:31:42.517Z,29.17
2022-09-07T18:36:44.573Z,29.20
2022-09-07T18:41:46.617Z,29.13
2022-09-07T18:46:48.668Z,29.18
2022-09-07T18:57:13.171Z,29.22
2022-09-07T19:02:15.345Z,29.19
2022-09-07T19:07:17.468Z,29.23
2022-09-07T19:12:20.096Z,29.26
2022-09-07T19:17:22.185Z,29.25
2022-09-07T19:22:24.219Z,29.28
2022-09-07T19:27:27.319Z,29.28
2022-09-07T19:32:29.488Z,29.32
2022-09-07T19:37:32.911Z,29.29
2022-09-07T19:42:34.968Z,29.28
2022-09-07T19:47:37.036Z,29.26
2022-09-07T19:52:39.062Z,29.25
2022-09-07T19:57:45.108Z,29.24
2022-09-07T20:02:49.670Z,29.27
2022-09-07T20:07:51.931Z,29.27
2022-09-07T20:12:54.065Z,29.26
2022-09-07T20:17:56.055Z,29.28
2022-09-07T20:22:58.188Z,29.27
2022-09-07T20:28:00.419Z,29.27
2022-09-07T20:33:02.461Z,29.26
2022-09-07T20:38:04.621Z,29.26
2022-09-07T20:43:06.656Z,29.24
2022-09-07T20:48:09.054Z,29.27
2022-09-07T20:53:11.039Z,29.23
2022-09-07T20:58:13.143Z,29.20
2022-09-07T21:03:15.166Z,29.19
2022-09-07T21:08:17.595Z,29.18
2022-09-07T21:13:19.696Z,29.18
2022-09-07T21:18:21.812Z,29.18
2022-09-07T21:23:24.708Z,29.18
2022-09-07T21:28:27.786Z,29.18
2022-09-07T21:33:31.209Z,29.15
2022-09-07T21:38:34.568Z,29.13
2022-09-07T21:43:36.912Z,29.14
2022-09-07T21:48:39.667Z,29.13
2022-09-07T21:53:42.605Z,29.12
2022-09-07T21:58:44.962Z,29.11
2022-09-07T22:03:48.519Z,29.09
2022-09-07T22:08:51.038Z,29.10
2022-09-07T22:13:58.208Z,29.10
2022-09-07T22:19:00.765Z,29.09
2022-09-07T22:24:06.199Z,29.09
2022-09-07T22:29:11.214Z,29.07
2022-09-07T22:34:13.265Z,29.08
2022-09-07T22:39:17.890Z,29.07
2022-09-07T22:44:20.086Z,29.07
2022-09-07T22:49:22.202Z,29.06
2022-09-07T22:54:24.282Z,29.05
2022-09-07T22:59:26.891Z,29.04
2022-09-07T23:04:31.743Z,29.05
2022-09-07T23:09:34.055Z,29.05
2022-09-07T23:14:36.215Z,29.04
2022-09-07T23:19:38.287Z,29.05
2022-09-07T23:24:41.778Z,29.05
2022-09-07T23:29:43.774Z,29.05
2022-09-07T23:34:45.741Z,29.02
2022-09-07T23:39:47.720Z,29.01
2022-09-07T23:44:49.703Z,29.01
2022-09-07T23:49:51.718Z,28.99
2022-09-07T23:54:53.961Z,28.98
2022-09-07T23:59:56.050Z,29.00
